Time;durP1;ratioP1;P1;durP2;ratioP2;P2;SDS_P1;SDS_P2;PMS_P1;PMS_P2;Temp;Humidity;BMP_temperature;BMP_pressure;BME280_temperature;BME280_humidity;BME280_pressure;Samples;Min_cycle;Max_cycle;Signal;HPM_P1;HPM_P2
2023/01/21 00:00:49;;;;;;;56.00;31.40;;;0.50;99.90;;;;;;5016912;28;20483;-52
2023/01/21 00:03:35;;;;;;;55.00;30.30;;;0.50;99.90;;;;;;5017477;28;20052;-50
2023/01/21 00:06:20;;;;;;;56.90;30.83;;;0.40;99.90;;;;;;5009399;28;20026;-49
2023/01/21 00:09:08;;;;;;;56.63;32.13;;;0.30;99.90;;;;;;5011860;28;20026;-54
2023/01/21 00:11:54;;;;;;;50.78;29.83;;;0.30;99.90;;;;;;5026891;28;20025;-53
2023/01/21 00:14:40;;;;;;;55.42;32.05;;;0.40;99.90;;;;;;5035634;28;20609;-56
2023/01/21 00:17:26;;;;;;;47.38;28.98;;;0.50;99.90;;;;;;5038569;28;20057;-54
2023/01/21 00:20:12;;;;;;;50.80;30.13;;;0.40;99.90;;;;;;5038452;28;20433;-53
2023/01/21 00:22:58;;;;;;;54.05;30.88;;;0.40;99.90;;;;;;5030940;28;20034;-52
2023/01/21 00:25:44;;;;;;;54.30;29.90;;;0.40;99.90;;;;;;5026766;28;20022;-50
2023/01/21 00:28:32;;;;;;;56.35;32.28;;;0.40;99.90;;;;;;5027545;28;20036;-48
2023/01/21 00:31:19;;;;;;;53.33;30.77;;;0.30;99.90;;;;;;5023077;28;20029;-48
2023/01/21 00:34:05;;;;;;;50.00;28.60;;;0.30;99.90;;;;;;5004020;28;20042;-53
2023/01/21 00:36:51;;;;;;;49.13;28.92;;;0.10;99.90;;;;;;5010843;28;20414;-50
2023/01/21 00:39:41;;;;;;;52.63;30.83;;;0.10;99.90;;;;;;5010822;28;20041;-50
2023/01/21 00:42:27;;;;;;;51.92;29.80;;;0.20;99.90;;;;;;5008744;28;20217;-49
2023/01/21 00:45:13;;;;;;;56.97;30.08;;;0.20;99.90;;;;;;5018151;28;20026;-51
2023/01/21 00:47:59;;;;;;;53.85;30.88;;;0.20;99.90;;;;;;5009954;28;20018;-52
2023/01/21 00:50:45;;;;;;;51.75;30.52;;;0.20;99.90;;;;;;5011338;28;20032;-49
2023/01/21 00:53:33;;;;;;;57.97;31.00;;;0.30;99.90;;;;;;5011698;28;20022;-50
2023/01/21 00:56:19;;;;;;;54.00;30.58;;;0.30;99.90;;;;;;5011168;28;20325;-51
2023/01/21 00:59:05;;;;;;;58.72;31.80;;;0.40;99.90;;;;;;5013355;28;20034;-49
2023/01/21 01:01:51;;;;;;;59.05;31.52;;;0.40;99.90;;;;;;5022289;28;20033;-49
2023/01/21 01:04:37;;;;;;;58.50;30.67;;;0.40;99.90;;;;;;5019013;28;20512;-51
2023/01/21 01:07:23;;;;;;;63.85;32.00;;;0.30;99.90;;;;;;5010234;28;20549;-48
2023/01/21 01:10:09;;;;;;;67.07;32.88;;;0.30;99.90;;;;;;5013731;28;20462;-52
2023/01/21 01:12:55;;;;;;;56.50;30.08;;;0.30;99.90;;;;;;5014352;28;20382;-49
2023/01/21 01:15:41;;;;;;;60.63;31.33;;;0.10;99.90;;;;;;5011326;28;20038;-48
2023/01/21 01:18:29;;;;;;;65.25;32.47;;;0.20;99.90;;;;;;5033330;28;20040;-46
2023/01/21 01:21:18;;;;;;;59.95;32.33;;;0.10;99.90;;;;;;5014954;28;20034;-51
2023/01/21 01:24:05;;;;;;;62.38;31.92;;;0.20;99.90;;;;;;5017578;28;20486;-48
2023/01/21 01:26:51;;;;;;;70.43;33.38;;;0.10;99.90;;;;;;5019946;28;20088;-54
2023/01/21 01:29:36;;;;;;;56.78;30.23;;;0.10;99.90;;;;;;5013523;28;20033;-51
2023/01/21 01:32:22;;;;;;;66.65;35.13;;;0.20;99.90;;;;;;5024751;28;20037;-50
2023/01/21 01:35:08;;;;;;;65.30;34.17;;;0.10;99.90;;;;;;5026209;28;20554;-50
2023/01/21 01:37:54;;;;;;;61.60;32.33;;;0.00;99.90;;;;;;5021985;28;20026;-50
2023/01/21 01:40:41;;;;;;;66.05;32.38;;;0.00;99.90;;;;;;5018421;28;20105;-51
2023/01/21 01:43:48;;;;;;;62.05;31.33;;;-0.10;99.90;;;;;;5012970;28;20033;-55
2023/01/21 01:46:35;;;;;;;67.97;34.00;;;-0.20;99.90;;;;;;5012875;28;20050;-51
2023/01/21 01:49:21;;;;;;;71.63;33.97;;;-0.30;99.90;;;;;;5011445;28;20033;-54
2023/01/21 01:52:10;;;;;;;66.55;32.78;;;-0.20;99.90;;;;;;5018234;28;20030;-54
2023/01/21 01:54:59;;;;;;;76.82;35.05;;;-0.20;99.90;;;;;;5008954;28;20501;-53
2023/01/21 01:57:48;;;;;;;61.88;33.45;;;-0.30;99.90;;;;;;5009799;28;20030;-47
2023/01/21 02:00:34;;;;;;;63.88;31.52;;;-0.30;99.90;;;;;;5011091;28;20029;-51
2023/01/21 02:06:26;;;;;;;63.03;28.95;;;-0.60;99.90;;;;;;5012608;28;20410;-50
2023/01/21 02:09:12;;;;;;;56.47;29.30;;;-0.60;99.90;;;;;;5023703;28;20034;-50
2023/01/21 02:12:01;;;;;;;64.47;29.33;;;-0.70;99.90;;;;;;5011900;28;20033;-52
2023/01/21 02:14:47;;;;;;;61.78;27.95;;;-0.80;99.90;;;;;;4996657;28;20034;-48
2023/01/21 02:17:39;;;;;;;63.85;28.02;;;-1.00;99.90;;;;;;5012792;28;20042;-55
2023/01/21 02:21:09;;;;;;;66.47;29.70;;;-0.90;99.90;;;;;;5012428;28;20104;-54
2023/01/21 02:24:14;;;;;;;66.35;29.40;;;-0.90;99.90;;;;;;5012605;28;20030;-49
2023/01/21 02:27:25;;;;;;;70.60;30.13;;;-0.90;99.90;;;;;;5011904;28;20090;-51
2023/01/21 02:30:34;;;;;;;58.80;28.42;;;-0.80;99.90;;;;;;5012167;28;20037;-52
2023/01/21 02:33:47;;;;;;;70.97;29.05;;;-0.70;99.90;;;;;;5012212;28;20026;-51
2023/01/21 02:36:51;;;;;;;67.80;30.25;;;-0.70;99.90;;;;;;5011275;28;20112;-51
2023/01/21 02:39:58;;;;;;;77.78;33.17;;;-0.70;99.90;;;;;;4992847;28;20037;-50
2023/01/21 02:43:00;;;;;;;73.80;31.73;;;-0.80;99.90;;;;;;4997977;28;20022;-48
2023/01/21 02:45:53;;;;;;;69.32;29.98;;;-0.80;99.90;;;;;;5010504;28;20102;-48
2023/01/21 02:48:53;;;;;;;68.80;29.00;;;-0.70;99.90;;;;;;5011802;28;20034;-50
2023/01/21 02:51:45;;;;;;;66.43;29.98;;;-0.80;99.90;;;;;;5011942;28;20060;-49
2023/01/21 02:54:40;;;;;;;59.75;27.80;;;-0.80;99.90;;;;;;5011485;28;20106;-52
2023/01/21 02:57:47;;;;;;;77.20;29.70;;;-0.80;99.90;;;;;;5011522;28;20402;-50
2023/01/21 03:00:46;;;;;;;69.97;31.45;;;-0.80;99.90;;;;;;5010903;28;20113;-49
2023/01/21 03:03:53;;;;;;;73.38;29.50;;;-0.90;99.90;;;;;;5012251;28;20446;-49
2023/01/21 03:07:05;;;;;;;65.18;30.50;;;-0.90;99.90;;;;;;5009408;28;20057;-48
2023/01/21 03:09:55;;;;;;;71.03;28.95;;;-0.90;99.90;;;;;;5015865;28;20029;-54
2023/01/21 03:13:02;;;;;;;63.08;28.88;;;-0.80;99.90;;;;;;5009002;28;20128;-51
2023/01/21 03:19:04;;;;;;;66.85;30.50;;;-0.90;99.90;;;;;;5010946;28;20026;-53
2023/01/21 03:21:52;;;;;;;65.20;29.50;;;-0.90;99.90;;;;;;5008643;28;20054;-51
2023/01/21 03:24:42;;;;;;;61.85;29.17;;;-0.90;99.90;;;;;;5016333;28;20112;-54
2023/01/21 03:27:30;;;;;;;61.28;28.15;;;-0.80;99.90;;;;;;5010597;28;20100;-52
2023/01/21 03:30:20;;;;;;;67.80;28.73;;;-0.70;99.90;;;;;;5010219;28;20516;-51
2023/01/21 03:33:08;;;;;;;68.63;29.15;;;-0.70;99.90;;;;;;5010145;28;20502;-52
2023/01/21 03:35:56;;;;;;;67.22;28.92;;;-0.60;99.90;;;;;;5008071;28;20090;-49
2023/01/21 03:38:46;;;;;;;63.50;30.17;;;-0.60;99.90;;;;;;5007546;28;20038;-55
2023/01/21 03:41:35;;;;;;;62.35;28.23;;;-0.50;99.90;;;;;;5005539;28;20494;-51
2023/01/21 03:44:21;;;;;;;64.07;28.35;;;-0.60;99.90;;;;;;5010115;28;20026;-51
2023/01/21 03:47:30;;;;;;;53.47;25.02;;;-0.50;99.90;;;;;;5009891;28;20110;-50
2023/01/21 03:50:22;;;;;;;60.17;27.80;;;-0.60;99.90;;;;;;5008242;28;20029;-52
2023/01/21 03:53:08;;;;;;;53.63;25.00;;;-0.60;99.90;;;;;;5009373;28;20037;-50
2023/01/21 03:55:54;;;;;;;56.25;26.02;;;-0.70;99.90;;;;;;5009417;28;20502;-52
2023/01/21 03:58:40;;;;;;;56.33;25.40;;;-0.60;99.90;;;;;;5008519;28;20042;-51
2023/01/21 04:01:26;;;;;;;55.42;26.80;;;-0.70;99.90;;;;;;5009029;28;20113;-51
2023/01/21 04:04:12;;;;;;;61.70;26.98;;;-0.70;99.90;;;;;;5009927;28;20030;-51
2023/01/21 04:06:58;;;;;;;58.03;24.67;;;-0.80;99.90;;;;;;5009034;28;20032;-51
2023/01/21 04:09:44;;;;;;;59.00;27.45;;;-0.80;99.90;;;;;;4990740;28;20479;-50
2023/01/21 04:12:30;;;;;;;63.72;28.52;;;-0.80;99.90;;;;;;4997401;28;20054;-49
2023/01/21 04:15:16;;;;;;;62.25;27.60;;;-0.90;99.90;;;;;;5009195;28;20090;-50
2023/01/21 04:18:02;;;;;;;66.43;26.30;;;-0.90;99.90;;;;;;5009981;28;20026;-49
2023/01/21 04:20:48;;;;;;;60.35;28.17;;;-0.70;99.90;;;;;;4996720;28;20045;-50
2023/01/21 04:23:34;;;;;;;62.42;27.23;;;-0.70;99.90;;;;;;5010386;28;20027;-50
2023/01/21 04:26:20;;;;;;;55.88;26.80;;;-0.70;99.90;;;;;;4990102;28;20110;-49
2023/01/21 04:29:06;;;;;;;57.75;26.10;;;-0.80;99.90;;;;;;4992473;28;20031;-51
2023/01/21 04:31:52;;;;;;;59.53;25.98;;;-0.80;99.90;;;;;;5011102;28;20026;-55
2023/01/21 04:34:38;;;;;;;57.17;26.17;;;-0.80;99.90;;;;;;5011420;28;20037;-54
2023/01/21 04:37:24;;;;;;;57.38;25.42;;;-0.80;99.90;;;;;;5014086;28;20026;-52
2023/01/21 04:40:10;;;;;;;58.65;29.90;;;-0.80;99.90;;;;;;5014800;28;20034;-52
2023/01/21 04:42:56;;;;;;;63.88;28.05;;;-0.90;99.90;;;;;;5014389;28;20058;-51
2023/01/21 04:45:42;;;;;;;62.85;26.98;;;-1.00;99.90;;;;;;5013471;28;20062;-49
2023/01/21 04:48:32;;;;;;;54.00;28.15;;;-0.90;99.90;;;;;;5021941;28;20030;-51
2023/01/21 04:51:18;;;;;;;60.60;27.05;;;-0.90;99.90;;;;;;5007560;28;20042;-55
2023/01/21 04:54:04;;;;;;;57.20;26.33;;;-0.90;99.90;;;;;;5016512;28;20026;-51
2023/01/21 04:56:49;;;;;;;58.40;27.08;;;-0.80;99.90;;;;;;5022156;28;20038;-46
2023/01/21 04:59:35;;;;;;;59.90;27.42;;;-0.70;99.90;;;;;;4981081;28;20041;-50
2023/01/21 05:02:21;;;;;;;58.78;26.58;;;-0.70;99.90;;;;;;5003834;28;20382;-49
2023/01/21 05:05:08;;;;;;;53.53;25.95;;;-0.70;99.90;;;;;;5020839;28;20509;-52
2023/01/21 05:07:54;;;;;;;49.55;24.92;;;-0.80;99.90;;;;;;5014051;28;20041;-52
2023/01/21 05:10:40;;;;;;;60.47;27.02;;;-0.80;99.90;;;;;;5000971;28;20049;-54
2023/01/21 05:13:26;;;;;;;61.63;27.88;;;-0.80;99.90;;;;;;5017176;28;20459;-58
2023/01/21 05:16:13;;;;;;;59.63;26.10;;;-0.90;99.90;;;;;;5015550;28;20691;-57
2023/01/21 05:18:59;;;;;;;52.63;26.58;;;-0.80;99.90;;;;;;5002908;28;20041;-52
2023/01/21 05:21:45;;;;;;;54.65;26.02;;;-0.90;99.90;;;;;;5015775;28;20053;-51
2023/01/21 05:24:31;;;;;;;58.25;26.02;;;-0.90;99.90;;;;;;5000453;28;20026;-57
2023/01/21 05:27:18;;;;;;;55.70;26.05;;;-0.90;99.90;;;;;;5015716;28;20022;-56
2023/01/21 05:30:05;;;;;;;60.40;25.70;;;-0.90;99.90;;;;;;5015349;28;20061;-53
2023/01/21 05:32:52;;;;;;;50.55;25.73;;;-0.80;99.90;;;;;;5006763;28;20037;-55
2023/01/21 05:35:38;;;;;;;53.63;25.92;;;-0.80;99.90;;;;;;5013754;28;20026;-51
2023/01/21 05:38:24;;;;;;;55.92;23.63;;;-0.80;99.90;;;;;;4995308;28;20030;-53
2023/01/21 05:41:10;;;;;;;45.72;22.42;;;-0.90;99.90;;;;;;5021530;28;20135;-52
2023/01/21 05:43:56;;;;;;;44.88;23.27;;;-0.80;99.90;;;;;;5031804;28;20486;-55
2023/01/21 05:46:42;;;;;;;42.33;21.50;;;-0.80;99.90;;;;;;5015501;28;20038;-52
2023/01/21 05:49:28;;;;;;;29.80;17.55;;;-0.60;99.90;;;;;;5015521;28;20505;-52
2023/01/21 05:52:14;;;;;;;26.10;15.20;;;-0.60;99.90;;;;;;5031250;28;20030;-49
2023/01/21 05:55:00;;;;;;;32.78;16.63;;;-0.70;99.90;;;;;;5027341;28;20037;-53
2023/01/21 05:57:46;;;;;;;28.77;15.80;;;-0.70;99.90;;;;;;5012801;28;20076;-54
2023/01/21 06:00:32;;;;;;;28.10;15.35;;;-0.60;99.90;;;;;;5011634;28;20061;-53
2023/01/21 06:03:18;;;;;;;27.45;14.95;;;-0.60;99.90;;;;;;5013620;28;20056;-54
2023/01/21 06:06:04;;;;;;;27.45;14.27;;;-0.60;99.90;;;;;;5017511;28;20026;-49
2023/01/21 06:08:50;;;;;;;29.77;15.00;;;-0.60;99.90;;;;;;5011251;28;20072;-49
2023/01/21 06:11:36;;;;;;;29.30;15.30;;;-0.60;99.90;;;;;;5010740;28;20037;-49
2023/01/21 06:14:22;;;;;;;27.30;13.75;;;-0.60;99.90;;;;;;4993341;28;20037;-52
2023/01/21 06:17:08;;;;;;;26.40;13.57;;;-0.50;99.90;;;;;;4992326;28;20029;-54
2023/01/21 06:19:54;;;;;;;25.63;13.60;;;-0.60;99.90;;;;;;4996191;28;20065;-49
2023/01/21 06:22:40;;;;;;;29.13;14.07;;;-0.50;99.90;;;;;;4996634;28;20018;-55
2023/01/21 06:25:26;;;;;;;30.58;14.73;;;-0.50;99.90;;;;;;5013027;28;20026;-49
2023/01/21 06:28:12;;;;;;;25.77;13.38;;;-0.50;99.90;;;;;;5012707;28;20509;-52
2023/01/21 06:30:58;;;;;;;26.88;15.30;;;-0.50;99.90;;;;;;5013678;28;20062;-58
2023/01/21 06:33:44;;;;;;;27.17;14.35;;;-0.50;99.90;;;;;;4997911;28;20045;-53
2023/01/21 06:36:30;;;;;;;33.40;15.57;;;-0.50;99.90;;;;;;5013891;28;20022;-55
2023/01/21 06:39:16;;;;;;;29.02;14.98;;;-0.50;99.90;;;;;;5020353;28;20037;-55
2023/01/21 06:42:01;;;;;;;33.20;16.25;;;-0.40;99.90;;;;;;5013575;28;20077;-53
2023/01/21 06:44:48;;;;;;;27.05;15.65;;;-0.30;99.90;;;;;;5012182;28;20104;-54
2023/01/21 06:47:33;;;;;;;27.27;16.45;;;-0.30;99.90;;;;;;5012781;28;20493;-55
2023/01/21 06:50:20;;;;;;;28.73;16.10;;;-0.20;99.90;;;;;;5013352;28;20513;-55
2023/01/21 06:53:05;;;;;;;34.17;16.40;;;-0.30;99.90;;;;;;5012897;28;20033;-54
2023/01/21 06:55:51;;;;;;;31.85;17.05;;;-0.20;99.90;;;;;;5011633;28;20033;-51
2023/01/21 06:58:37;;;;;;;32.05;16.75;;;-0.20;99.90;;;;;;5011573;28;20032;-56
2023/01/21 07:01:23;;;;;;;29.85;15.98;;;-0.20;99.90;;;;;;4990778;28;20049;-53
2023/01/21 07:04:09;;;;;;;33.25;16.42;;;-0.10;99.90;;;;;;5013068;28;20102;-54
2023/01/21 07:06:55;;;;;;;33.55;16.77;;;0.00;99.90;;;;;;5012129;28;20058;-54
2023/01/21 07:09:41;;;;;;;27.73;14.93;;;0.00;99.90;;;;;;5024019;28;20146;-57
2023/01/21 07:12:27;;;;;;;31.95;16.95;;;0.10;99.90;;;;;;5009808;28;20026;-55
2023/01/21 07:15:13;;;;;;;32.63;16.52;;;0.10;99.90;;;;;;5012039;28;20026;-55
2023/01/21 07:17:59;;;;;;;30.55;15.82;;;0.10;99.90;;;;;;5011751;28;20498;-58
2023/01/21 07:20:45;;;;;;;30.10;14.75;;;0.10;99.90;;;;;;5011511;28;20038;-53
2023/01/21 07:23:31;;;;;;;31.55;15.93;;;0.10;99.90;;;;;;5019996;28;20029;-57
2023/01/21 07:26:17;;;;;;;32.67;15.43;;;0.00;99.90;;;;;;5016284;28;20037;-51
2023/01/21 07:29:05;;;;;;;31.70;16.27;;;-0.10;99.90;;;;;;5011033;28;20034;-58
2023/01/21 07:31:51;;;;;;;30.00;15.50;;;-0.10;99.90;;;;;;5018140;28;20136;-56
2023/01/21 07:34:37;;;;;;;28.50;15.20;;;0.00;99.90;;;;;;5015219;28;20454;-56
2023/01/21 07:37:23;;;;;;;30.83;15.85;;;0.10;99.90;;;;;;5010372;28;20034;-56
2023/01/21 07:40:09;;;;;;;35.63;17.35;;;0.10;99.90;;;;;;4998037;28;20460;-55
2023/01/21 07:42:55;;;;;;;29.33;14.80;;;0.00;99.90;;;;;;5009508;28;20112;-56
2023/01/21 07:45:42;;;;;;;31.65;15.63;;;0.10;99.90;;;;;;5010576;28;20072;-56
2023/01/21 07:48:28;;;;;;;29.88;16.20;;;0.00;99.90;;;;;;5011275;28;20022;-56
2023/01/21 07:51:20;;;;;;;35.92;17.05;;;0.00;99.90;;;;;;4992258;28;20053;-56
2023/01/21 07:54:06;;;;;;;33.88;19.17;;;-0.10;99.90;;;;;;5018710;28;20034;-58
2023/01/21 07:56:52;;;;;;;33.97;16.85;;;-0.20;99.90;;;;;;5009027;28;20531;-57
2023/01/21 07:59:38;;;;;;;37.83;18.98;;;-0.20;99.90;;;;;;5011201;28;20030;-57
2023/01/21 08:02:24;;;;;;;38.60;18.92;;;-0.20;99.90;;;;;;5011782;28;20493;-56
2023/01/21 08:05:10;;;;;;;37.00;17.58;;;-0.10;99.90;;;;;;5020569;28;20530;-57
2023/01/21 08:07:57;;;;;;;38.72;18.70;;;0.00;99.90;;;;;;5017101;28;20034;-55
2023/01/21 08:10:43;;;;;;;37.20;18.73;;;-0.20;99.90;;;;;;5026801;28;20517;-58
2023/01/21 08:13:29;;;;;;;42.15;18.48;;;-0.20;99.90;;;;;;5015233;28;20085;-53
2023/01/21 08:16:15;;;;;;;35.47;19.15;;;-0.30;99.90;;;;;;5019232;28;20091;-59
2023/01/21 08:19:01;;;;;;;35.97;18.23;;;-0.30;99.90;;;;;;5035101;28;20116;-56
2023/01/21 08:21:47;;;;;;;37.55;19.17;;;-0.20;99.90;;;;;;5035139;28;20021;-56
2023/01/21 08:24:33;;;;;;;33.33;17.80;;;-0.20;99.90;;;;;;5034668;28;20041;-57
2023/01/21 08:27:19;;;;;;;35.90;16.88;;;-0.20;99.90;;;;;;5034372;28;20021;-59
2023/01/21 08:30:06;;;;;;;33.63;17.00;;;-0.30;99.90;;;;;;5034049;28;20033;-54
2023/01/21 08:32:52;;;;;;;36.83;18.25;;;-0.20;99.90;;;;;;4985365;28;20069;-53
2023/01/21 08:35:38;;;;;;;35.75;18.00;;;-0.30;99.90;;;;;;5024198;28;20030;-53
2023/01/21 08:38:24;;;;;;;28.88;16.42;;;-0.30;99.90;;;;;;5019761;28;20022;-55
2023/01/21 08:41:10;;;;;;;32.72;16.70;;;-0.20;99.90;;;;;;5019958;28;20493;-57
2023/01/21 08:43:59;;;;;;;29.10;16.65;;;-0.20;99.90;;;;;;5036931;28;20029;-55
2023/01/21 08:46:46;;;;;;;33.28;16.35;;;-0.30;99.90;;;;;;5022421;28;20021;-51
2023/01/21 08:49:37;;;;;;;29.00;15.25;;;-0.20;99.90;;;;;;5035544;28;20109;-53
2023/01/21 08:52:23;;;;;;;34.75;16.85;;;-0.10;99.90;;;;;;5034510;28;20070;-54
2023/01/21 08:55:09;;;;;;;31.00;16.35;;;-0.10;99.90;;;;;;5017639;28;20021;-54
2023/01/21 08:57:57;;;;;;;33.65;15.77;;;-0.10;99.90;;;;;;5021566;28;20515;-56
2023/01/21 09:00:43;;;;;;;30.55;16.27;;;0.00;99.90;;;;;;5019696;28;20045;-54
2023/01/21 09:03:29;;;;;;;35.47;16.85;;;0.00;99.90;;;;;;5015219;28;20085;-54
2023/01/21 09:06:15;;;;;;;34.55;18.02;;;0.00;99.90;;;;;;5014726;28;20109;-53
2023/01/21 09:09:01;;;;;;;34.17;16.50;;;0.00;99.90;;;;;;5013848;28;20505;-51
2023/01/21 09:11:47;;;;;;;39.22;16.73;;;0.00;99.90;;;;;;5014088;28;20430;-55
2023/01/21 09:14:33;;;;;;;31.50;16.08;;;0.10;99.90;;;;;;5015626;28;20417;-52
2023/01/21 09:17:19;;;;;;;30.17;17.80;;;0.20;99.90;;;;;;5012916;28;20029;-52
2023/01/21 09:20:05;;;;;;;37.30;19.73;;;0.30;99.90;;;;;;5015065;28;20033;-49
2023/01/21 09:22:51;;;;;;;36.72;18.27;;;0.20;99.90;;;;;;5014303;28;20089;-58
2023/01/21 09:25:37;;;;;;;35.78;18.25;;;0.20;99.90;;;;;;5013496;28;20426;-57
2023/01/21 09:28:23;;;;;;;43.33;23.15;;;0.20;99.90;;;;;;5013334;28;20033;-49
2023/01/21 09:31:11;;;;;;;33.30;17.92;;;0.30;99.90;;;;;;5013790;28;20413;-53
2023/01/21 09:34:00;;;;;;;31.75;16.75;;;0.30;99.90;;;;;;5010784;28;20033;-50
2023/01/21 09:36:46;;;;;;;34.10;17.55;;;0.20;99.90;;;;;;5012896;28;20025;-53
2023/01/21 09:39:32;;;;;;;28.17;16.25;;;0.30;99.90;;;;;;5031346;28;20037;-49
2023/01/21 09:42:20;;;;;;;31.38;17.10;;;0.30;99.90;;;;;;5026249;28;20060;-51
2023/01/21 09:45:12;;;;;;;30.35;16.50;;;0.30;99.90;;;;;;5023130;28;20066;-50
2023/01/21 09:47:59;;;;;;;27.50;15.45;;;0.40;99.90;;;;;;5032450;28;20022;-51
2023/01/21 09:50:46;;;;;;;29.58;17.00;;;0.40;99.90;;;;;;5031176;28;20029;-52
2023/01/21 09:53:48;;;;;;;31.77;16.27;;;0.40;99.90;;;;;;5033192;28;20092;-54
2023/01/21 09:56:47;;;;;;;30.65;16.15;;;0.40;99.90;;;;;;5031876;28;20036;-50
2023/01/21 09:59:57;;;;;;;27.20;15.02;;;0.40;99.90;;;;;;5017190;28;20065;-51
2023/01/21 10:03:04;;;;;;;23.80;13.93;;;0.40;99.90;;;;;;5020488;28;20064;-52
2023/01/21 10:06:03;;;;;;;23.20;13.05;;;0.60;99.90;;;;;;5019164;28;20030;-56
2023/01/21 10:08:54;;;;;;;28.77;14.63;;;0.50;99.90;;;;;;5013754;28;20502;-58
2023/01/21 10:12:03;;;;;;;26.20;14.30;;;0.60;99.90;;;;;;5012520;28;20093;-57
2023/01/21 10:14:48;;;;;;;23.88;14.02;;;0.50;99.90;;;;;;5013092;28;20061;-56
2023/01/21 10:17:58;;;;;;;27.25;14.32;;;0.40;99.90;;;;;;5033092;28;20108;-51
2023/01/21 10:21:15;;;;;;;25.15;14.02;;;0.50;99.90;;;;;;5031881;28;20029;-49
2023/01/21 10:24:17;;;;;;;27.08;13.32;;;0.50;99.90;;;;;;5032738;28;20022;-57
2023/01/21 10:27:04;;;;;;;27.17;14.43;;;0.60;99.90;;;;;;5031350;28;20029;-51
2023/01/21 10:30:00;;;;;;;25.65;14.48;;;0.70;99.90;;;;;;5023709;28;20105;-52
2023/01/21 10:32:53;;;;;;;33.90;16.75;;;0.80;99.90;;;;;;5008308;28;20018;-53
2023/01/21 10:35:48;;;;;;;26.80;14.35;;;0.80;99.90;;;;;;4997533;28;20026;-50
2023/01/21 10:38:46;;;;;;;21.17;12.57;;;0.90;99.90;;;;;;5019878;28;20060;-49
2023/01/21 10:41:32;;;;;;;25.45;14.48;;;0.80;99.90;;;;;;5008013;28;20147;-49
2023/01/21 10:44:37;;;;;;;27.33;14.77;;;0.80;99.90;;;;;;5010952;28;20044;-47
2023/01/21 10:47:40;;;;;;;26.40;14.07;;;0.70;99.90;;;;;;5012649;28;20032;-49
2023/01/21 10:50:32;;;;;;;24.65;14.18;;;0.90;99.90;;;;;;5010520;28;20580;-52
2023/01/21 10:53:57;;;;;;;25.08;13.75;;;0.90;99.90;;;;;;5011941;28;20068;-53
2023/01/21 10:57:31;;;;;;;23.45;13.73;;;1.00;99.90;;;;;;5067201;28;20448;-57
2023/01/21 11:00:24;;;;;;;29.15;13.57;;;1.10;99.90;;;;;;5071908;28;20032;-52
2023/01/21 11:03:28;;;;;;;22.60;13.57;;;0.90;99.90;;;;;;5086704;28;20035;-54
2023/01/21 11:06:17;;;;;;;26.30;13.85;;;0.90;99.90;;;;;;5088082;28;20496;-54
2023/01/21 11:09:05;;;;;;;23.80;13.90;;;1.10;99.90;;;;;;5088197;28;20062;-53
2023/01/21 11:11:51;;;;;;;21.92;12.90;;;1.10;99.90;;;;;;5088707;28;20102;-52
2023/01/21 11:14:37;;;;;;;21.45;13.60;;;1.10;99.90;;;;;;5072119;28;20070;-54
2023/01/21 11:17:32;;;;;;;21.45;12.65;;;1.10;99.90;;;;;;5088861;28;20464;-53
2023/01/21 11:20:42;;;;;;;25.38;14.25;;;1.10;99.90;;;;;;5088144;28;20016;-56
2023/01/21 11:23:30;;;;;;;20.17;12.45;;;1.10;99.90;;;;;;5088308;28;20113;-52
2023/01/21 11:26:22;;;;;;;22.45;13.48;;;1.20;99.90;;;;;;5087087;28;20093;-54
2023/01/21 11:29:12;;;;;;;25.83;13.82;;;1.20;99.90;;;;;;5065741;28;20575;-52
2023/01/21 11:32:09;;;;;;;22.85;14.57;;;1.10;99.90;;;;;;5068200;28;20052;-49
2023/01/21 11:35:14;;;;;;;23.15;12.30;;;1.20;99.90;;;;;;5066696;28;20574;-56
2023/01/21 11:38:00;;;;;;;25.20;14.30;;;1.30;99.90;;;;;;5065427;28;20017;-51
2023/01/21 11:41:03;;;;;;;25.75;13.73;;;1.30;99.90;;;;;;5065074;28;20029;-52
2023/01/21 11:44:18;;;;;;;27.15;14.05;;;1.30;99.90;;;;;;5066636;28;20056;-56
2023/01/21 11:47:27;;;;;;;20.50;12.88;;;1.20;99.90;;;;;;5065428;28;20020;-49
2023/01/21 11:50:22;;;;;;;18.67;12.93;;;1.30;99.90;;;;;;5068717;28;20036;-49
2023/01/21 11:53:14;;;;;;;24.73;15.20;;;1.20;99.90;;;;;;5066478;28;20494;-55
2023/01/21 11:56:02;;;;;;;27.98;16.13;;;1.40;99.90;;;;;;5066754;28;20066;-53
2023/01/21 11:58:48;;;;;;;21.88;13.32;;;1.40;99.90;;;;;;5066683;28;20496;-50
2023/01/21 12:01:34;;;;;;;21.33;14.32;;;1.50;99.90;;;;;;5066295;28;20020;-52
2023/01/21 12:04:20;;;;;;;21.80;14.80;;;1.40;99.90;;;;;;5050053;28;20072;-56
2023/01/21 12:07:06;;;;;;;23.85;14.68;;;1.30;99.90;;;;;;5071516;28;20461;-50
2023/01/21 12:10:07;;;;;;;25.33;15.55;;;1.20;99.90;;;;;;5059440;28;20056;-53
2023/01/21 12:13:05;;;;;;;25.10;14.50;;;1.40;99.90;;;;;;5055333;28;20485;-53
2023/01/21 12:16:25;;;;;;;24.33;14.85;;;1.40;99.90;;;;;;5051427;28;20465;-53
2023/01/21 12:19:45;;;;;;;25.27;14.27;;;1.50;99.90;;;;;;5049164;28;20107;-50
2023/01/21 12:22:44;;;;;;;25.88;15.18;;;1.50;99.90;;;;;;5038024;28;20052;-51
2023/01/21 12:26:00;;;;;;;28.95;16.38;;;1.50;99.90;;;;;;5051229;28;20370;-53
2023/01/21 12:28:52;;;;;;;24.73;15.07;;;1.50;99.90;;;;;;5039602;28;20025;-55
2023/01/21 12:31:48;;;;;;;25.90;15.65;;;1.50;99.90;;;;;;5054900;28;20754;-58
2023/01/21 12:34:45;;;;;;;25.90;15.27;;;1.40;99.90;;;;;;5052695;28;20017;-51
2023/01/21 12:37:45;;;;;;;23.90;14.63;;;1.40;99.90;;;;;;5056028;28;20025;-55
2023/01/21 12:40:47;;;;;;;24.67;14.90;;;1.40;99.90;;;;;;5057016;28;20596;-56
2023/01/21 12:43:39;;;;;;;24.48;15.35;;;1.70;99.90;;;;;;5041290;28;20112;-56
2023/01/21 12:46:35;;;;;;;25.95;15.18;;;1.70;99.90;;;;;;5041601;28;20045;-52
2023/01/21 12:49:53;;;;;;;24.45;14.50;;;1.70;99.90;;;;;;5061227;28;20025;-55
2023/01/21 12:53:01;;;;;;;25.80;15.95;;;1.50;99.90;;;;;;5057136;28;20052;-55
2023/01/21 12:56:11;;;;;;;24.42;14.88;;;1.50;99.90;;;;;;5055213;28;20025;-57
2023/01/21 12:59:18;;;;;;;30.08;16.92;;;1.50;99.90;;;;;;5057928;28;20425;-55
2023/01/21 13:02:23;;;;;;;28.92;16.67;;;1.50;99.90;;;;;;5054565;28;20013;-55
2023/01/21 13:05:16;;;;;;;26.58;15.68;;;1.40;99.90;;;;;;5056356;28;20378;-55
2023/01/21 13:08:42;;;;;;;31.35;16.80;;;1.40;99.90;;;;;;5053534;28;20036;-53
2023/01/21 13:11:32;;;;;;;29.17;16.85;;;1.30;99.90;;;;;;4960894;28;20063;-55
2023/01/21 13:14:36;;;;;;;27.55;16.45;;;1.40;99.90;;;;;;5058923;28;20025;-52
2023/01/21 13:17:27;;;;;;;29.30;17.23;;;1.50;99.90;;;;;;5051671;28;20029;-53
2023/01/21 13:20:19;;;;;;;27.63;17.00;;;1.50;99.90;;;;;;5036379;28;20009;-53
2023/01/21 13:23:24;;;;;;;29.83;16.13;;;1.50;99.90;;;;;;5044517;28;20036;-53
2023/01/21 13:26:25;;;;;;;30.58;15.88;;;1.40;99.90;;;;;;5053492;28;20020;-56
2023/01/21 13:29:14;;;;;;;27.85;16.98;;;1.40;99.90;;;;;;5059408;28;20509;-52
2023/01/21 13:32:28;;;;;;;31.48;17.85;;;1.40;99.90;;;;;;5053060;28;20035;-54
2023/01/21 13:35:35;;;;;;;29.77;17.02;;;1.40;99.90;;;;;;5035596;28;20052;-55
2023/01/21 13:38:49;;;;;;;32.45;17.45;;;1.40;99.90;;;;;;5050747;28;20024;-51
2023/01/21 13:41:54;;;;;;;29.08;16.13;;;1.50;99.90;;;;;;5052180;28;20083;-54
2023/01/21 13:45:25;;;;;;;31.60;17.30;;;1.60;99.90;;;;;;5070531;28;20016;-51
2023/01/21 13:48:14;;;;;;;32.15;16.85;;;1.50;99.90;;;;;;4965120;28;20034;-57
2023/01/21 13:51:37;;;;;;;32.72;17.65;;;1.50;99.90;;;;;;5053375;28;20397;-53
2023/01/21 13:54:37;;;;;;;32.47;17.77;;;1.50;99.90;;;;;;5069446;28;20032;-61
2023/01/21 13:57:54;;;;;;;33.38;17.98;;;1.50;99.90;;;;;;5070461;28;20029;-54
2023/01/21 14:00:56;;;;;;;33.42;17.33;;;1.50;99.90;;;;;;5071828;28;20020;-53
2023/01/21 14:03:56;;;;;;;31.90;17.30;;;1.50;99.90;;;;;;5071602;28;20484;-52
2023/01/21 14:06:52;;;;;;;33.00;16.45;;;1.50;99.90;;;;;;5071529;28;20028;-55
2023/01/21 14:09:55;;;;;;;31.08;17.38;;;1.60;99.90;;;;;;5071286;28;20020;-52
2023/01/21 14:12:50;;;;;;;31.17;17.20;;;1.60;99.90;;;;;;5070386;28;20025;-55
2023/01/21 14:15:55;;;;;;;31.33;17.10;;;1.60;99.90;;;;;;5070070;28;20085;-55
2023/01/21 14:19:08;;;;;;;33.85;18.17;;;1.60;99.90;;;;;;5070282;28;20106;-52
2023/01/21 14:22:07;;;;;;;33.97;17.23;;;1.60;99.90;;;;;;5055766;28;20085;-54
2023/01/21 14:25:12;;;;;;;33.42;17.65;;;1.70;99.90;;;;;;5069959;28;20396;-57
2023/01/21 14:28:14;;;;;;;33.80;17.65;;;1.70;99.90;;;;;;5070162;28;20032;-56
2023/01/21 14:31:10;;;;;;;32.75;18.10;;;1.80;99.90;;;;;;5071252;28;20068;-52
2023/01/21 14:34:38;;;;;;;32.97;17.50;;;1.80;99.90;;;;;;5047505;28;20028;-56
2023/01/21 14:37:32;;;;;;;31.30;17.95;;;2.00;99.90;;;;;;5058309;28;20033;-54
2023/01/21 14:40:30;;;;;;;30.17;16.40;;;2.10;99.90;;;;;;5036996;28;20496;-56
2023/01/21 14:43:46;;;;;;;32.15;17.83;;;2.10;99.90;;;;;;5035889;28;20034;-54
2023/01/21 14:46:33;;;;;;;27.33;16.10;;;2.20;99.90;;;;;;5015814;28;20108;-52